Time;durP1;ratioP1;P1;durP2;ratioP2;P2;SDS_P1;SDS_P2;PMS_P1;PMS_P2;Temp;Humidity;BMP_temperature;BMP_pressure;BME280_temperature;BME280_humidity;BME280_pressure;Samples;Min_cycle;Max_cycle;Signal;HPM_P1;HPM_P2
2022/03/16 00:02:49;;;;;;;2.78;2.10;;;;;;;-148.93;100.00;62180.91;20735250;28;20053;-79
2022/03/16 00:12:51;;;;;;;2.28;2.08;;;;;;;-148.93;100.00;62180.91;20781133;28;20068;-78
2022/03/16 00:22:53;;;;;;;2.47;2.10;;;;;;;-148.93;100.00;62180.91;20830226;28;20061;-78
2022/03/16 00:32:54;;;;;;;2.65;2.05;;;;;;;-148.93;100.00;62180.91;20829293;28;20494;-78
2022/03/16 00:42:58;;;;;;;3.22;2.17;;;;;;;-148.93;100.00;62180.91;20798568;28;20122;-78
2022/03/16 00:53:00;;;;;;;2.80;2.45;;;;;;;-148.93;100.00;62180.91;20811772;28;20499;-78
2022/03/16 01:03:02;;;;;;;2.63;2.00;;;;;;;-148.93;100.00;62180.91;20817987;28;20049;-78
2022/03/16 01:13:05;;;;;;;2.83;2.20;;;;;;;-148.93;100.00;62180.91;20829367;28;20045;-78
2022/03/16 01:23:08;;;;;;;2.13;1.70;;;;;;;-148.93;100.00;62180.91;20827159;28;20053;-79
2022/03/16 01:33:10;;;;;;;2.47;2.10;;;;;;;-148.93;100.00;62180.91;20771808;28;20046;-78
2022/03/16 01:43:12;;;;;;;2.65;2.30;;;;;;;-148.93;100.00;62180.91;20793649;28;20042;-78
2022/03/16 01:53:15;;;;;;;2.97;2.20;;;;;;;-148.93;100.00;62180.91;20824872;28;20478;-79
2022/03/16 02:03:16;;;;;;;3.45;2.40;;;;;;;-148.93;100.00;62180.91;20800877;28;20514;-78
2022/03/16 02:13:20;;;;;;;3.00;2.20;;;;;;;-148.93;100.00;62180.91;20815094;28;20045;-78
2022/03/16 02:23:22;;;;;;;2.88;2.30;;;;;;;-148.93;100.00;62180.91;20823760;28;20053;-78
2022/03/16 02:33:25;;;;;;;2.63;2.10;;;;;;;-148.93;100.00;62180.91;20855882;28;20415;-79
2022/03/16 02:43:27;;;;;;;2.45;2.22;;;;;;;-148.93;100.00;62180.91;20817756;28;20053;-79
2022/03/16 02:53:29;;;;;;;2.28;1.95;;;;;;;-148.93;100.00;62180.91;20799225;28;21644;-79
2022/03/16 03:03:31;;;;;;;3.47;2.00;;;;;;;-148.93;100.00;62180.91;20817050;28;20049;-79
2022/03/16 03:13:35;;;;;;;2.08;1.60;;;;;;;-148.93;100.00;62180.91;20815936;28;20073;-79
2022/03/16 03:23:37;;;;;;;2.97;1.90;;;;;;;-148.93;100.00;62180.91;20798096;28;20080;-78
2022/03/16 03:33:38;;;;;;;2.58;2.05;;;;;;;-148.93;100.00;62180.91;20831220;28;20042;-79
2022/03/16 03:43:40;;;;;;;2.40;1.98;;;;;;;-148.93;100.00;62180.91;20819597;28;20051;-79
2022/03/16 03:53:44;;;;;;;1.80;1.70;;;;;;;-148.93;100.00;62180.91;20836391;28;20141;-79
2022/03/16 04:03:46;;;;;;;1.67;1.50;;;;;;;-148.93;100.00;62180.91;20835562;28;20148;-79
2022/03/16 04:13:47;;;;;;;1.70;1.42;;;;;;;-148.93;100.00;62180.91;20830210;28;20049;-78
2022/03/16 04:23:49;;;;;;;1.67;1.30;;;;;;;-148.93;100.00;62180.91;20756111;28;20058;-78
2022/03/16 04:33:52;;;;;;;1.88;1.40;;;;;;;-148.93;100.00;62180.91;20814294;28;20056;-79
2022/03/16 04:43:54;;;;;;;1.50;1.38;;;;;;;-148.93;100.00;62180.91;20829714;28;20406;-78
2022/03/16 04:53:55;;;;;;;1.60;1.50;;;;;;;-148.93;100.00;62180.91;20812639;28;20053;-79
2022/03/16 05:03:57;;;;;;;1.80;1.38;;;;;;;-148.93;100.00;62180.91;20830380;28;20057;-79
2022/03/16 05:14:00;;;;;;;2.45;1.60;;;;;;;-148.93;100.00;62180.91;20829208;28;20475;-79
2022/03/16 05:24:02;;;;;;;1.48;1.38;;;;;;;-148.93;100.00;62180.91;20811071;28;20053;-79
2022/03/16 05:34:03;;;;;;;1.52;1.42;;;;;;;-148.93;100.00;62180.91;20797663;28;20048;-79
2022/03/16 05:44:07;;;;;;;1.20;1.10;;;;;;;-148.93;100.00;62180.91;20824169;28;20128;-79
2022/03/16 05:54:09;;;;;;;1.55;1.45;;;;;;;-148.93;100.00;62180.91;20824019;28;20087;-79
2022/03/16 06:04:11;;;;;;;1.67;1.40;;;;;;;-148.93;100.00;62180.91;20807931;28;20045;-79
2022/03/16 06:14:12;;;;;;;1.30;1.20;;;;;;;-148.93;100.00;62180.91;20825265;28;20042;-79
2022/03/16 06:24:14;;;;;;;1.70;1.10;;;;;;;-148.93;100.00;62180.91;20807538;28;20041;-79
2022/03/16 06:34:16;;;;;;;1.63;1.25;;;;;;;-148.93;100.00;62180.91;20802905;28;20056;-79
2022/03/16 06:44:19;;;;;;;1.40;1.30;;;;;;;-148.93;100.00;62180.91;20799819;28;20060;-79
2022/03/16 06:54:21;;;;;;;1.50;1.30;;;;;;;-148.93;100.00;62180.91;20823648;28;20488;-82
2022/03/16 07:04:23;;;;;;;1.35;1.25;;;;;;;-148.93;100.00;62180.91;20802273;28;20041;-80
2022/03/16 07:14:31;;;;;;;1.30;1.20;;;;;;;-148.93;100.00;62180.91;20832249;28;20053;-79
2022/03/16 07:24:35;;;;;;;1.58;1.30;;;;;;;-148.93;100.00;62180.91;20818370;28;20057;-79
2022/03/16 07:34:37;;;;;;;1.77;1.48;;;;;;;-148.93;100.00;62180.91;20849256;28;20190;-79
2022/03/16 07:44:38;;;;;;;1.85;1.50;;;;;;;-148.93;100.00;62180.91;20831547;28;20053;-79
2022/03/16 07:54:40;;;;;;;1.40;1.30;;;;;;;-148.93;100.00;62180.91;20848600;28;20045;-79
2022/03/16 08:04:42;;;;;;;2.38;1.77;;;;;;;-148.93;100.00;62180.91;20848035;28;20457;-79
2022/03/16 08:14:44;;;;;;;2.17;1.70;;;;;;;-148.93;100.00;62180.91;20809288;28;20125;-79
2022/03/16 08:24:50;;;;;;;1.73;1.48;;;;;;;-148.93;100.00;62180.91;20826985;28;20115;-79
2022/03/16 08:34:56;;;;;;;1.63;1.23;;;;;;;-148.93;100.00;62180.91;20740883;28;20044;-80
2022/03/16 08:44:58;;;;;;;2.92;1.75;;;;;;;-148.93;100.00;62180.91;20751775;28;20069;-79
2022/03/16 08:54:59;;;;;;;4.85;2.45;;;;;;;-148.93;100.00;62180.91;20750853;28;20054;-79
2022/03/16 09:05:01;;;;;;;3.10;1.65;;;;;;;-148.93;100.00;62180.91;20738425;28;20080;-80
2022/03/16 09:15:04;;;;;;;2.72;2.10;;;;;;;-148.93;100.00;62180.91;20749716;28;20168;-79
2022/03/16 09:25:07;;;;;;;3.80;2.15;;;;;;;-148.93;100.00;62180.91;20767357;28;20449;-79
2022/03/16 09:35:09;;;;;;;4.50;2.03;;;;;;;-148.93;100.00;62180.91;20828452;28;20498;-79
2022/03/16 09:45:17;;;;;;;4.72;2.00;;;;;;;-148.93;100.00;62180.91;20810642;28;20056;-79
2022/03/16 09:55:20;;;;;;;2.45;1.70;;;;;;;-148.93;100.00;62180.91;20827385;28;20053;-79
2022/03/16 10:05:26;;;;;;;2.25;1.80;;;;;;;-148.93;100.00;62180.91;20824710;28;20120;-79
2022/03/16 10:15:28;;;;;;;2.88;1.95;;;;;;;-148.93;100.00;62180.91;20792135;28;20068;-79
2022/03/16 10:25:33;;;;;;;3.33;1.90;;;;;;;-148.93;100.00;62180.91;20824125;28;20051;-79
2022/03/16 10:35:35;;;;;;;2.28;1.85;;;;;;;-148.93;100.00;62180.91;20806351;28;20056;-80
2022/03/16 10:56:01;;;;;;;3.47;1.73;;;;;;;-148.93;100.00;62180.91;20823682;28;20042;-80
2022/03/16 11:06:04;;;;;;;3.72;2.40;;;;;;;-148.93;100.00;62180.91;20806078;28;20049;-80
2022/03/16 11:16:07;;;;;;;2.25;1.90;;;;;;;-148.93;100.00;62180.91;20822776;28;20057;-80
2022/03/16 11:26:26;;;;;;;2.47;1.90;;;;;;;-148.93;100.00;62180.91;20821976;28;20053;-80
2022/03/16 11:36:32;;;;;;;3.00;1.52;;;;;;;-148.93;100.00;62180.91;20803269;28;20092;-80
2022/03/16 11:46:35;;;;;;;2.30;1.83;;;;;;;-148.93;100.00;62180.91;20807515;28;20058;-79
2022/03/16 11:56:41;;;;;;;3.35;2.30;;;;;;;-148.93;100.00;62180.91;20800634;28;20100;-81
2022/03/16 12:07:03;;;;;;;2.00;1.70;;;;;;;-148.93;100.00;62180.91;20817656;28;20088;-79
2022/03/16 12:17:14;;;;;;;2.67;1.90;;;;;;;-148.93;100.00;62180.91;20818057;28;20060;-80
2022/03/16 12:37:49;;;;;;;2.67;1.90;;;;;;;-148.93;100.00;62180.91;20833629;28;20136;-79
2022/03/16 12:48:19;;;;;;;2.75;1.92;;;;;;;-148.93;100.00;62180.91;20815140;28;20057;-79
2022/03/16 12:58:26;;;;;;;3.47;2.00;;;;;;;-148.93;100.00;62180.91;20811219;28;20500;-79
2022/03/16 13:08:28;;;;;;;3.13;1.65;;;;;;;-148.93;100.00;62180.91;20813850;28;20107;-79
2022/03/16 13:18:34;;;;;;;2.97;1.98;;;;;;;-148.93;100.00;62180.91;20830485;28;20416;-79
2022/03/16 13:28:39;;;;;;;4.22;2.30;;;;;;;-148.93;100.00;62180.91;20794435;28;20498;-80
2022/03/16 13:38:41;;;;;;;2.00;1.77;;;;;;;-148.93;100.00;62180.91;20729949;28;20176;-79
2022/03/16 13:48:44;;;;;;;2.70;2.35;;;;;;;-148.93;100.00;62180.91;20745834;28;20057;-79
2022/03/16 13:58:50;;;;;;;3.28;1.90;;;;;;;-148.93;100.00;62180.91;20755352;28;20508;-79
2022/03/16 14:08:52;;;;;;;3.15;2.10;;;;;;;-148.93;100.00;62180.91;20726705;28;20049;-79
2022/03/16 14:18:54;;;;;;;2.67;2.10;;;;;;;-148.93;100.00;62180.91;20745221;28;20494;-79
2022/03/16 14:28:56;;;;;;;2.10;1.90;;;;;;;-148.93;100.00;62180.91;20783089;28;20064;-79
2022/03/16 14:38:58;;;;;;;3.00;2.00;;;;;;;-148.93;100.00;62180.91;20789858;28;20049;-79
2022/03/16 14:49:00;;;;;;;3.38;2.17;;;;;;;-148.93;100.00;62180.91;20821829;28;20050;-79
2022/03/16 14:59:02;;;;;;;3.25;2.30;;;;;;;-148.93;100.00;62180.91;20771871;28;20053;-79
2022/03/16 15:09:04;;;;;;;2.85;2.08;;;;;;;-148.93;100.00;62180.91;20821723;28;20495;-79
2022/03/16 15:19:07;;;;;;;2.35;2.15;;;;;;;-148.93;100.00;62180.91;20820524;28;20050;-79
2022/03/16 15:29:09;;;;;;;2.65;2.10;;;;;;;-148.93;100.00;62180.91;20836949;28;20057;-79
2022/03/16 15:39:11;;;;;;;3.10;2.80;;;;;;;-148.93;100.00;62180.91;20838119;28;20049;-80
2022/03/16 15:49:13;;;;;;;3.13;2.53;;;;;;;-148.93;100.00;62180.91;20820682;28;20057;-81
2022/03/16 15:59:15;;;;;;;3.78;2.70;;;;;;;-148.93;100.00;62180.91;20819148;28;20045;-80
2022/03/16 16:09:17;;;;;;;4.10;2.90;;;;;;;-148.93;100.00;62180.91;20818211;28;20152;-80
2022/03/16 16:19:19;;;;;;;3.20;2.10;;;;;;;-148.93;100.00;62180.91;20801170;28;20053;-81
2022/03/16 16:39:35;;;;;;;2.47;2.17;;;;;;;-148.93;100.00;62180.91;20832432;28;20495;-81
2022/03/16 16:49:39;;;;;;;3.63;2.50;;;;;;;-148.93;100.00;62180.91;20832622;28;20111;-81
2022/03/16 16:59:41;;;;;;;3.25;2.15;;;;;;;-148.93;100.00;62180.91;20832038;28;20147;-81
2022/03/16 17:09:43;;;;;;;3.72;2.38;;;;;;;-148.93;100.00;62180.91;20831289;28;20041;-80
2022/03/16 17:19:44;;;;;;;2.10;1.90;;;;;;;-148.93;100.00;62180.91;20812947;28;20048;-81
2022/03/16 17:29:47;;;;;;;2.15;1.90;;;;;;;-148.93;100.00;62180.91;20811879;28;20061;-81
2022/03/16 17:39:49;;;;;;;2.85;2.00;;;;;;;-148.93;100.00;62180.91;20811099;28;20049;-81
2022/03/16 17:49:51;;;;;;;3.67;2.03;;;;;;;-148.93;100.00;62180.91;20810193;28;20578;-79
2022/03/16 17:59:53;;;;;;;3.63;1.95;;;;;;;-148.93;100.00;62180.91;20827390;28;20045;-80
2022/03/16 18:20:20;;;;;;;3.13;2.15;;;;;;;-148.93;100.00;62180.91;20767024;28;20115;-81
2022/03/16 18:30:22;;;;;;;2.35;1.63;;;;;;;-148.93;100.00;62180.91;20824884;28;20053;-80
2022/03/16 18:40:26;;;;;;;3.00;1.90;;;;;;;-148.93;100.00;62180.91;20806860;28;20056;-80
2022/03/16 18:50:29;;;;;;;2.28;1.70;;;;;;;-148.93;100.00;62180.91;20823617;28;20049;-80
2022/03/16 19:00:32;;;;;;;2.35;1.88;;;;;;;-148.93;100.00;62180.91;20805149;28;20057;-80
2022/03/16 19:10:34;;;;;;;2.03;1.45;;;;;;;-148.93;100.00;62180.91;20789282;28;20068;-80
2022/03/16 19:20:36;;;;;;;1.67;1.58;;;;;;;-148.93;100.00;62180.91;20822662;28;20057;-80
2022/03/16 19:30:51;;;;;;;1.90;1.70;;;;;;;-148.93;100.00;62180.91;20806637;28;20062;-80
2022/03/16 19:40:53;;;;;;;2.45;2.20;;;;;;;-148.93;100.00;62180.91;20821576;28;20041;-80
2022/03/16 19:50:57;;;;;;;1.98;1.60;;;;;;;-148.93;100.00;62180.91;20787902;28;20037;-80
2022/03/16 20:00:59;;;;;;;2.35;1.83;;;;;;;-148.93;100.00;62180.91;20821239;28;20092;-79
2022/03/16 20:11:02;;;;;;;2.90;1.50;;;;;;;-148.93;100.00;62180.91;20809196;28;20064;-79
2022/03/16 20:21:04;;;;;;;2.28;1.55;;;;;;;-148.93;100.00;62180.91;20835112;28;20403;-79
2022/03/16 20:31:06;;;;;;;2.03;1.52;;;;;;;-148.93;100.00;62180.91;20833929;28;20068;-79
2022/03/16 20:41:09;;;;;;;2.72;1.65;;;;;;;-148.93;100.00;62180.91;20818407;28;20045;-79
2022/03/16 20:51:13;;;;;;;2.53;1.50;;;;;;;-148.93;100.00;62180.91;20817227;28;20562;-79
2022/03/16 21:01:15;;;;;;;1.63;1.38;;;;;;;-148.93;100.00;62180.91;20814589;28;20055;-79
2022/03/16 21:11:17;;;;;;;1.70;1.40;;;;;;;-148.93;100.00;62180.91;20831424;28;20067;-79
2022/03/16 21:21:20;;;;;;;1.98;1.30;;;;;;;-148.93;100.00;62180.91;20812034;28;20506;-79
2022/03/16 21:31:22;;;;;;;2.88;1.48;;;;;;;-148.93;100.00;62180.91;20829200;28;20144;-79
2022/03/16 21:51:45;;;;;;;3.35;1.75;;;;;;;-148.93;100.00;62180.91;20813344;28;20136;-79
2022/03/16 22:01:47;;;;;;;3.25;1.50;;;;;;;-148.93;100.00;62180.91;20827107;28;20061;-79
2022/03/16 22:11:49;;;;;;;1.60;1.40;;;;;;;-148.93;100.00;62180.91;20805950;28;20129;-79
2022/03/16 22:21:50;;;;;;;2.97;1.40;;;;;;;-148.93;100.00;62180.91;20778226;28;20045;-79
2022/03/16 22:31:52;;;;;;;2.08;1.50;;;;;;;-148.93;100.00;62180.91;20819385;28;20495;-79
2022/03/16 22:41:55;;;;;;;2.42;1.45;;;;;;;-148.93;100.00;62180.91;20804907;28;20049;-79
2022/03/16 22:51:57;;;;;;;2.35;1.60;;;;;;;-148.93;100.00;62180.91;20799643;28;20041;-79
2022/03/16 23:01:58;;;;;;;2.78;1.52;;;;;;;-148.93;100.00;62180.91;20808235;28;20050;-79
2022/03/16 23:12:01;;;;;;;3.30;1.63;;;;;;;-148.93;100.00;62180.91;20815870;28;20120;-80
2022/03/16 23:22:03;;;;;;;11.55;2.42;;;;;;;-148.93;100.00;62180.91;20798122;28;20056;-79
2022/03/16 23:32:08;;;;;;;2.38;1.90;;;;;;;-148.93;100.00;62180.91;20788832;28;20213;-79
2022/03/16 23:42:10;;;;;;;2.05;1.67;;;;;;;-148.93;100.00;62180.91;20767535;28;20453;-79
2022/03/16 23:52:13;;;;;;;2.03;1.60;;;;;;;-148.93;100.00;62180.91;20788819;28;20049;-79
